Columbia Heights, Illinois
Current Conditions -  °F | °C
As of 10:55 AM on Thursday 23 Oct 2014 (Local Time) from KGBG Reporting Station
Clear Clear  
Wind Chill: 55°   Ceiling: Unl
Heat Index: 55°   Visibility: 10mi
Dew Point: 43°   Wind: 12mph
Humidity: 64%   Direction: 170°S
Pressure: 30.16"   Gusts: 20mph
Location:  40.945°N, 90.3106°W
Report Text: KGBG 231555Z AUTO 17010G17KT 10SM CLR 13/06 A3016 RMK AO2 T01280062
Loading
Personal Weather Stations






























Interactive Weather Map
Tropical Storm Tracking
New forecast layout! Learn more

10-Day Weather Forecast

Advertisements
Track Severe Weather on mobile